sensor_id;sensor_type;location;lat;lon;timestamp;P1;durP1;ratioP1;P2;durP2;ratioP2
40637;SDS011;26336;44.696;10.622;2022-09-21T00:00:17;5.30;;;2.75;;
40637;SDS011;26336;44.696;10.622;2022-09-21T00:03:21;8.80;;;3.17;;
40637;SDS011;26336;44.696;10.622;2022-09-21T00:06:26;3.58;;;2.17;;
40637;SDS011;26336;44.696;10.622;2022-09-21T00:09:32;3.40;;;2.50;;
40637;SDS011;26336;44.696;10.622;2022-09-21T00:12:36;3.40;;;2.28;;
40637;SDS011;26336;44.696;10.622;2022-09-21T00:15:42;8.90;;;2.95;;
40637;SDS011;26336;44.696;10.622;2022-09-21T00:18:47;3.63;;;2.60;;
40637;SDS011;26336;44.696;10.622;2022-09-21T00:21:54;4.10;;;2.40;;
40637;SDS011;26336;44.696;10.622;2022-09-21T00:24:58;5.22;;;2.47;;
40637;SDS011;26336;44.696;10.622;2022-09-21T00:28:07;13.43;;;3.10;;
40637;SDS011;26336;44.696;10.622;2022-09-21T00:31:12;3.15;;;2.63;;
40637;SDS011;26336;44.696;10.622;2022-09-21T00:34:19;3.47;;;2.47;;
40637;SDS011;26336;44.696;10.622;2022-09-21T00:37:25;4.25;;;2.67;;
40637;SDS011;26336;44.696;10.622;2022-09-21T00:40:30;4.70;;;2.70;;
40637;SDS011;26336;44.696;10.622;2022-09-21T00:43:35;5.88;;;2.55;;
40637;SDS011;26336;44.696;10.622;2022-09-21T00:46:40;3.30;;;2.15;;
40637;SDS011;26336;44.696;10.622;2022-09-21T00:49:45;4.97;;;2.72;;
40637;SDS011;26336;44.696;10.622;2022-09-21T00:52:55;6.63;;;2.88;;
40637;SDS011;26336;44.696;10.622;2022-09-21T00:56:00;3.72;;;2.50;;
40637;SDS011;26336;44.696;10.622;2022-09-21T00:59:06;4.63;;;2.30;;
40637;SDS011;26336;44.696;10.622;2022-09-21T01:02:11;2.47;;;2.10;;
40637;SDS011;26336;44.696;10.622;2022-09-21T01:05:17;6.30;;;2.33;;
40637;SDS011;26336;44.696;10.622;2022-09-21T01:08:21;6.10;;;2.17;;
40637;SDS011;26336;44.696;10.622;2022-09-21T01:15:22;6.40;;;2.40;;
40637;SDS011;26336;44.696;10.622;2022-09-21T01:19:22;2.95;;;2.10;;
40637;SDS011;26336;44.696;10.622;2022-09-21T01:32:46;3.55;;;3.05;;
40637;SDS011;26336;44.696;10.622;2022-09-21T01:35:56;5.28;;;3.00;;
40637;SDS011;26336;44.696;10.622;2022-09-21T01:39:08;5.15;;;3.22;;
40637;SDS011;26336;44.696;10.622;2022-09-21T01:42:17;7.03;;;4.15;;
40637;SDS011;26336;44.696;10.622;2022-09-21T01:45:25;6.82;;;4.00;;
40637;SDS011;26336;44.696;10.622;2022-09-21T01:48:37;6.45;;;3.92;;
40637;SDS011;26336;44.696;10.622;2022-09-21T01:51:47;4.93;;;3.40;;
40637;SDS011;26336;44.696;10.622;2022-09-21T01:55:00;8.18;;;4.20;;
40637;SDS011;26336;44.696;10.622;2022-09-21T01:58:35;8.25;;;4.32;;
40637;SDS011;26336;44.696;10.622;2022-09-21T02:01:45;6.65;;;4.20;;
40637;SDS011;26336;44.696;10.622;2022-09-21T02:05:02;6.85;;;4.22;;
40637;SDS011;26336;44.696;10.622;2022-09-21T02:08:07;6.32;;;3.90;;
40637;SDS011;26336;44.696;10.622;2022-09-21T02:11:12;4.40;;;3.72;;
40637;SDS011;26336;44.696;10.622;2022-09-21T02:14:18;6.32;;;3.70;;
40637;SDS011;26336;44.696;10.622;2022-09-21T02:20:46;7.88;;;3.67;;
40637;SDS011;26336;44.696;10.622;2022-09-21T02:23:59;5.65;;;3.72;;
40637;SDS011;26336;44.696;10.622;2022-09-21T02:31:25;3.80;;;2.92;;
40637;SDS011;26336;44.696;10.622;2022-09-21T02:34:58;6.78;;;2.95;;
40637;SDS011;26336;44.696;10.622;2022-09-21T02:41:14;4.78;;;2.67;;
40637;SDS011;26336;44.696;10.622;2022-09-21T02:44:23;2.83;;;2.28;;
40637;SDS011;26336;44.696;10.622;2022-09-21T02:47:37;4.40;;;2.53;;
40637;SDS011;26336;44.696;10.622;2022-09-21T02:50:59;3.70;;;2.40;;
40637;SDS011;26336;44.696;10.622;2022-09-21T02:54:09;5.97;;;2.45;;
40637;SDS011;26336;44.696;10.622;2022-09-21T02:57:17;8.50;;;2.70;;
40637;SDS011;26336;44.696;10.622;2022-09-21T03:00:24;3.85;;;2.60;;
40637;SDS011;26336;44.696;10.622;2022-09-21T03:03:29;3.35;;;2.10;;
40637;SDS011;26336;44.696;10.622;2022-09-21T03:06:33;5.65;;;2.40;;
40637;SDS011;26336;44.696;10.622;2022-09-21T03:09:37;5.07;;;2.45;;
40637;SDS011;26336;44.696;10.622;2022-09-21T03:12:41;4.70;;;2.50;;
40637;SDS011;26336;44.696;10.622;2022-09-21T03:15:48;5.93;;;2.80;;
40637;SDS011;26336;44.696;10.622;2022-09-21T03:18:52;4.40;;;2.72;;
40637;SDS011;26336;44.696;10.622;2022-09-21T03:21:56;7.00;;;3.53;;
40637;SDS011;26336;44.696;10.622;2022-09-21T03:25:00;4.70;;;2.90;;
40637;SDS011;26336;44.696;10.622;2022-09-21T03:28:04;5.22;;;2.58;;
40637;SDS011;26336;44.696;10.622;2022-09-21T03:31:08;4.95;;;2.80;;
40637;SDS011;26336;44.696;10.622;2022-09-21T03:34:12;6.50;;;3.30;;
40637;SDS011;26336;44.696;10.622;2022-09-21T03:37:16;4.05;;;3.03;;
40637;SDS011;26336;44.696;10.622;2022-09-21T03:40:23;7.25;;;2.90;;
40637;SDS011;26336;44.696;10.622;2022-09-21T03:43:29;6.57;;;3.20;;
40637;SDS011;26336;44.696;10.622;2022-09-21T03:46:33;6.03;;;3.70;;
40637;SDS011;26336;44.696;10.622;2022-09-21T03:49:37;5.03;;;3.40;;
40637;SDS011;26336;44.696;10.622;2022-09-21T03:52:41;8.10;;;3.40;;
40637;SDS011;26336;44.696;10.622;2022-09-21T03:55:45;3.83;;;2.83;;
40637;SDS011;26336;44.696;10.622;2022-09-21T03:58:49;6.47;;;3.03;;
40637;SDS011;26336;44.696;10.622;2022-09-21T04:01:53;4.45;;;3.30;;
40637;SDS011;26336;44.696;10.622;2022-09-21T04:04:57;5.07;;;3.40;;
40637;SDS011;26336;44.696;10.622;2022-09-21T04:08:01;6.15;;;3.03;;
40637;SDS011;26336;44.696;10.622;2022-09-21T04:11:12;5.82;;;3.17;;
40637;SDS011;26336;44.696;10.622;2022-09-21T04:14:17;5.00;;;3.40;;
40637;SDS011;26336;44.696;10.622;2022-09-21T04:17:21;6.85;;;3.55;;
40637;SDS011;26336;44.696;10.622;2022-09-21T04:20:25;3.38;;;3.08;;
40637;SDS011;26336;44.696;10.622;2022-09-21T04:23:29;4.47;;;3.60;;
40637;SDS011;26336;44.696;10.622;2022-09-21T04:26:33;5.57;;;3.53;;
40637;SDS011;26336;44.696;10.622;2022-09-21T04:29:38;4.95;;;3.67;;
40637;SDS011;26336;44.696;10.622;2022-09-21T04:32:42;9.13;;;3.92;;
40637;SDS011;26336;44.696;10.622;2022-09-21T04:35:46;8.85;;;4.53;;
40637;SDS011;26336;44.696;10.622;2022-09-21T04:38:50;5.53;;;4.80;;
40637;SDS011;26336;44.696;10.622;2022-09-21T04:41:54;8.07;;;4.38;;
40637;SDS011;26336;44.696;10.622;2022-09-21T04:44:59;8.57;;;4.60;;
40637;SDS011;26336;44.696;10.622;2022-09-21T04:48:02;7.32;;;4.00;;
40637;SDS011;26336;44.696;10.622;2022-09-21T04:51:07;5.82;;;4.32;;
40637;SDS011;26336;44.696;10.622;2022-09-21T04:54:12;6.10;;;3.85;;
40637;SDS011;26336;44.696;10.622;2022-09-21T04:57:16;7.13;;;3.65;;
40637;SDS011;26336;44.696;10.622;2022-09-21T05:00:20;8.32;;;3.58;;
40637;SDS011;26336;44.696;10.622;2022-09-21T05:03:24;9.85;;;4.45;;
40637;SDS011;26336;44.696;10.622;2022-09-21T05:06:29;5.72;;;3.97;;
40637;SDS011;26336;44.696;10.622;2022-09-21T05:09:34;6.95;;;4.40;;
40637;SDS011;26336;44.696;10.622;2022-09-21T05:12:57;9.70;;;4.10;;
40637;SDS011;26336;44.696;10.622;2022-09-21T05:16:00;8.00;;;4.07;;
40637;SDS011;26336;44.696;10.622;2022-09-21T05:19:04;5.68;;;3.95;;
40637;SDS011;26336;44.696;10.622;2022-09-21T05:22:08;8.05;;;4.30;;
40637;SDS011;26336;44.696;10.622;2022-09-21T05:25:12;7.63;;;4.50;;
40637;SDS011;26336;44.696;10.622;2022-09-21T05:28:16;8.30;;;4.50;;
40637;SDS011;26336;44.696;10.622;2022-09-21T05:34:32;7.68;;;4.72;;
40637;SDS011;26336;44.696;10.622;2022-09-21T05:38:06;6.80;;;4.10;;
40637;SDS011;26336;44.696;10.622;2022-09-21T05:41:21;7.90;;;4.03;;
40637;SDS011;26336;44.696;10.622;2022-09-21T05:44:26;5.32;;;3.92;;
40637;SDS011;26336;44.696;10.622;2022-09-21T05:50:55;4.47;;;3.65;;
40637;SDS011;26336;44.696;10.622;2022-09-21T05:54:25;7.38;;;4.15;;
40637;SDS011;26336;44.696;10.622;2022-09-21T06:04:36;7.25;;;3.60;;
40637;SDS011;26336;44.696;10.622;2022-09-21T06:07:40;5.30;;;4.30;;
40637;SDS011;26336;44.696;10.622;2022-09-21T06:10:45;6.47;;;5.50;;
40637;SDS011;26336;44.696;10.622;2022-09-21T06:13:49;6.45;;;5.35;;
40637;SDS011;26336;44.696;10.622;2022-09-21T06:16:53;7.53;;;4.88;;
40637;SDS011;26336;44.696;10.622;2022-09-21T06:19:57;6.38;;;3.95;;
40637;SDS011;26336;44.696;10.622;2022-09-21T06:23:04;4.50;;;4.05;;
40637;SDS011;26336;44.696;10.622;2022-09-21T06:26:10;6.75;;;3.60;;
40637;SDS011;26336;44.696;10.622;2022-09-21T06:29:14;3.90;;;3.05;;
40637;SDS011;26336;44.696;10.622;2022-09-21T06:32:19;5.15;;;3.47;;
40637;SDS011;26336;44.696;10.622;2022-09-21T06:35:23;7.07;;;3.90;;
40637;SDS011;26336;44.696;10.622;2022-09-21T06:38:27;6.80;;;4.25;;
40637;SDS011;26336;44.696;10.622;2022-09-21T06:41:31;6.65;;;3.78;;
40637;SDS011;26336;44.696;10.622;2022-09-21T06:44:35;9.52;;;4.03;;
40637;SDS011;26336;44.696;10.622;2022-09-21T06:47:45;4.15;;;3.28;;
40637;SDS011;26336;44.696;10.622;2022-09-21T06:50:50;7.03;;;3.33;;
40637;SDS011;26336;44.696;10.622;2022-09-21T06:53:54;5.32;;;3.35;;
40637;SDS011;26336;44.696;10.622;2022-09-21T06:56:59;7.03;;;3.42;;
40637;SDS011;26336;44.696;10.622;2022-09-21T07:00:04;6.55;;;3.72;;
40637;SDS011;26336;44.696;10.622;2022-09-21T07:03:10;9.88;;;4.20;;
40637;SDS011;26336;44.696;10.622;2022-09-21T07:06:17;8.95;;;3.40;;
40637;SDS011;26336;44.696;10.622;2022-09-21T07:09:22;10.52;;;3.40;;
40637;SDS011;26336;44.696;10.622;2022-09-21T07:12:27;4.85;;;2.97;;
40637;SDS011;26336;44.696;10.622;2022-09-21T07:15:31;6.03;;;3.15;;
40637;SDS011;26336;44.696;10.622;2022-09-21T07:18:36;5.55;;;2.72;;
40637;SDS011;26336;44.696;10.622;2022-09-21T07:21:41;9.90;;;3.40;;
40637;SDS011;26336;44.696;10.622;2022-09-21T07:24:45;10.52;;;2.97;;
40637;SDS011;26336;44.696;10.622;2022-09-21T07:27:49;7.88;;;2.60;;
40637;SDS011;26336;44.696;10.622;2022-09-21T07:30:53;5.95;;;2.78;;
40637;SDS011;26336;44.696;10.622;2022-09-21T07:33:59;4.53;;;2.42;;
40637;SDS011;26336;44.696;10.622;2022-09-21T07:37:03;5.85;;;2.42;;
40637;SDS011;26336;44.696;10.622;2022-09-21T07:40:07;7.15;;;2.22;;
40637;SDS011;26336;44.696;10.622;2022-09-21T07:43:11;5.68;;;1.92;;
40637;SDS011;26336;44.696;10.622;2022-09-21T07:46:16;3.80;;;1.98;;
40637;SDS011;26336;44.696;10.622;2022-09-21T07:49:21;7.43;;;1.92;;
40637;SDS011;26336;44.696;10.622;2022-09-21T07:52:26;3.03;;;1.67;;
40637;SDS011;26336;44.696;10.622;2022-09-21T07:55:30;3.50;;;1.70;;
40637;SDS011;26336;44.696;10.622;2022-09-21T07:58:34;5.63;;;1.77;;
40637;SDS011;26336;44.696;10.622;2022-09-21T08:01:58;4.25;;;1.77;;
40637;SDS011;26336;44.696;10.622;2022-09-21T08:05:02;3.83;;;1.70;;
40637;SDS011;26336;44.696;10.622;2022-09-21T08:08:07;3.25;;;1.40;;
40637;SDS011;26336;44.696;10.622;2022-09-21T08:11:11;3.30;;;1.45;;
40637;SDS011;26336;44.696;10.622;2022-09-21T08:14:16;3.83;;;1.23;;
40637;SDS011;26336;44.696;10.622;2022-09-21T08:17:22;1.40;;;0.95;;
40637;SDS011;26336;44.696;10.622;2022-09-21T08:20:27;5.00;;;1.60;;
40637;SDS011;26336;44.696;10.622;2022-09-21T08:23:31;0.82;;;0.77;;
40637;SDS011;26336;44.696;10.622;2022-09-21T08:26:35;2.60;;;1.38;;
40637;SDS011;26336;44.696;10.622;2022-09-21T08:29:39;1.88;;;0.98;;
40637;SDS011;26336;44.696;10.622;2022-09-21T08:32:43;1.42;;;0.93;;
40637;SDS011;26336;44.696;10.622;2022-09-21T08:35:51;1.20;;;0.77;;
40637;SDS011;26336;44.696;10.622;2022-09-21T08:38:56;2.80;;;1.17;;
40637;SDS011;26336;44.696;10.622;2022-09-21T08:45:14;3.40;;;1.00;;
40637;SDS011;26336;44.696;10.622;2022-09-21T08:48:24;6.25;;;1.20;;
40637;SDS011;26336;44.696;10.622;2022-09-21T08:51:35;1.25;;;1.00;;
40637;SDS011;26336;44.696;10.622;2022-09-21T08:54:56;1.83;;;1.02;;
40637;SDS011;26336;44.696;10.622;2022-09-21T08:58:05;3.13;;;0.80;;
40637;SDS011;26336;44.696;10.622;2022-09-21T09:04:34;0.98;;;0.80;;
40637;SDS011;26336;44.696;10.622;2022-09-21T09:10:58;3.47;;;0.95;;
40637;SDS011;26336;44.696;10.622;2022-09-21T09:14:20;2.10;;;0.80;;
40637;SDS011;26336;44.696;10.622;2022-09-21T09:21:02;3.60;;;1.00;;
40637;SDS011;26336;44.696;10.622;2022-09-21T09:24:17;1.23;;;0.68;;
40637;SDS011;26336;44.696;10.622;2022-09-21T09:27:35;1.80;;;0.80;;
40637;SDS011;26336;44.696;10.622;2022-09-21T09:30:41;2.88;;;0.70;;
40637;SDS011;26336;44.696;10.622;2022-09-21T09:37:23;2.22;;;0.75;;
40637;SDS011;26336;44.696;10.622;2022-09-21T09:50:59;1.15;;;0.68;;
40637;SDS011;26336;44.696;10.622;2022-09-21T09:54:03;1.20;;;0.70;;
40637;SDS011;26336;44.696;10.622;2022-09-21T09:57:06;2.75;;;0.80;;
40637;SDS011;26336;44.696;10.622;2022-09-21T10:00:15;1.92;;;0.80;;
40637;SDS011;26336;44.696;10.622;2022-09-21T10:03:22;2.35;;;0.82;;
40637;SDS011;26336;44.696;10.622;2022-09-21T10:06:31;2.05;;;1.05;;
40637;SDS011;26336;44.696;10.622;2022-09-21T10:09:35;3.58;;;0.75;;
40637;SDS011;26336;44.696;10.622;2022-09-21T10:12:39;1.20;;;0.88;;
40637;SDS011;26336;44.696;10.622;2022-09-21T10:15:52;2.03;;;1.23;;
40637;SDS011;26336;44.696;10.622;2022-09-21T10:18:59;1.50;;;0.88;;
40637;SDS011;26336;44.696;10.622;2022-09-21T10:22:04;3.17;;;0.70;;
40637;SDS011;26336;44.696;10.622;2022-09-21T10:25:14;1.00;;;0.60;;
40637;SDS011;26336;44.696;10.622;2022-09-21T10:28:19;1.80;;;1.00;;
40637;SDS011;26336;44.696;10.622;2022-09-21T10:31:26;2.30;;;1.10;;
40637;SDS011;26336;44.696;10.622;2022-09-21T10:34:33;1.55;;;1.10;;
40637;SDS011;26336;44.696;10.622;2022-09-21T10:37:47;1.48;;;1.00;;
40637;SDS011;26336;44.696;10.622;2022-09-21T10:40:53;3.03;;;1.20;;
40637;SDS011;26336;44.696;10.622;2022-09-21T10:43:57;1.88;;;1.00;;
40637;SDS011;26336;44.696;10.622;2022-09-21T10:47:03;2.88;;;1.13;;
40637;SDS011;26336;44.696;10.622;2022-09-21T10:50:39;1.42;;;0.77;;
40637;SDS011;26336;44.696;10.622;2022-09-21T10:53:46;2.72;;;0.98;;
40637;SDS011;26336;44.696;10.622;2022-09-21T10:56:53;1.40;;;0.90;;
40637;SDS011;26336;44.696;10.622;2022-09-21T11:07:39;2.67;;;1.35;;
40637;SDS011;26336;44.696;10.622;2022-09-21T11:11:10;3.08;;;1.40;;
40637;SDS011;26336;44.696;10.622;2022-09-21T11:14:44;4.25;;;1.58;;
40637;SDS011;26336;44.696;10.622;2022-09-21T11:27:39;5.50;;;1.00;;
40637;SDS011;26336;44.696;10.622;2022-09-21T11:31:09;1.08;;;0.80;;
40637;SDS011;26336;44.696;10.622;2022-09-21T11:41:52;4.60;;;1.90;;
40637;SDS011;26336;44.696;10.622;2022-09-21T12:16:56;1.00;;;0.70;;
40637;SDS011;26336;44.696;10.622;2022-09-21T12:20:18;4.57;;;1.10;;
40637;SDS011;26336;44.696;10.622;2022-09-21T12:26:41;1.77;;;0.93;;
40637;SDS011;26336;44.696;10.622;2022-09-21T12:29:52;2.15;;;0.90;;
40637;SDS011;26336;44.696;10.622;2022-09-21T12:36:38;2.90;;;0.95;;
40637;SDS011;26336;44.696;10.622;2022-09-21T12:40:17;2.70;;;0.60;;
40637;SDS011;26336;44.696;10.622;2022-09-21T12:43:42;5.00;;;1.02;;
40637;SDS011;26336;44.696;10.622;2022-09-21T12:50:33;2.05;;;0.60;;
40637;SDS011;26336;44.696;10.622;2022-09-21T12:53:47;1.43;;;0.77;;
40637;SDS011;26336;44.696;10.622;2022-09-21T12:56:58;1.27;;;0.80;;
40637;SDS011;26336;44.696;10.622;2022-09-21T13:00:25;5.80;;;1.13;;
40637;SDS011;26336;44.696;10.622;2022-09-21T13:03:43;6.13;;;0.70;;
40637;SDS011;26336;44.696;10.622;2022-09-21T13:07:22;11.15;;;1.67;;
40637;SDS011;26336;44.696;10.622;2022-09-21T13:10:59;0.90;;;0.60;;
40637;SDS011;26336;44.696;10.622;2022-09-21T13:14:09;2.83;;;0.80;;
40637;SDS011;26336;44.696;10.622;2022-09-21T13:17:23;2.97;;;0.60;;
40637;SDS011;26336;44.696;10.622;2022-09-21T13:20:37;1.25;;;0.50;;
40637;SDS011;26336;44.696;10.622;2022-09-21T13:27:06;5.97;;;0.90;;
40637;SDS011;26336;44.696;10.622;2022-09-21T13:30:17;1.40;;;0.45;;
40637;SDS011;26336;44.696;10.622;2022-09-21T13:46:52;2.67;;;0.63;;
40637;SDS011;26336;44.696;10.622;2022-09-21T13:53:29;4.60;;;0.50;;
40637;SDS011;26336;44.696;10.622;2022-09-21T13:56:44;2.38;;;0.50;;
40637;SDS011;26336;44.696;10.622;2022-09-21T13:59:56;3.08;;;0.70;;
40637;SDS011;26336;44.696;10.622;2022-09-21T14:06:40;1.05;;;0.55;;
40637;SDS011;26336;44.696;10.622;2022-09-21T14:10:01;1.17;;;0.32;;
40637;SDS011;26336;44.696;10.622;2022-09-21T14:13:21;3.80;;;0.75;;
40637;SDS011;26336;44.696;10.622;2022-09-21T14:22:49;2.50;;;0.60;;
40637;SDS011;26336;44.696;10.622;2022-09-21T14:26:29;1.23;;;0.45;;
40637;SDS011;26336;44.696;10.622;2022-09-21T14:29:49;2.20;;;0.50;;
40637;SDS011;26336;44.696;10.622;2022-09-21T14:36:05;4.32;;;1.02;;
40637;SDS011;26336;44.696;10.622;2022-09-21T14:39:30;1.13;;;0.43;;
40637;SDS011;26336;44.696;10.622;2022-09-21T14:42:47;2.45;;;0.57;;
40637;SDS011;26336;44.696;10.622;2022-09-21T15:05:47;0.75;;;0.40;;
40637;SDS011;26336;44.696;10.622;2022-09-21T15:12:37;1.52;;;0.50;;
40637;SDS011;26336;44.696;10.622;2022-09-21T15:22:31;0.90;;;0.30;;
40637;SDS011;26336;44.696;10.622;2022-09-21T15:25:35;1.85;;;0.47;;
40637;SDS011;26336;44.696;10.622;2022-09-21T15:28:45;3.85;;;0.50;;
40637;SDS011;26336;44.696;10.622;2022-09-21T15:31:53;3.08;;;0.55;;
40637;SDS011;26336;44.696;10.622;2022-09-21T15:35:01;1.15;;;0.60;;
40637;SDS011;26336;44.696;10.622;2022-09-21T15:38:24;5.85;;;0.88;;
40637;SDS011;26336;44.696;10.622;2022-09-21T15:44:37;2.75;;;0.63;;
40637;SDS011;26336;44.696;10.622;2022-09-21T15:47:41;0.90;;;0.43;;
40637;SDS011;26336;44.696;10.622;2022-09-21T15:50:58;3.28;;;0.60;;
40637;SDS011;26336;44.696;10.622;2022-09-21T15:54:14;0.80;;;0.40;;
40637;SDS011;26336;44.696;10.622;2022-09-21T15:57:38;1.25;;;0.70;;
40637;SDS011;26336;44.696;10.622;2022-09-21T16:00:49;2.83;;;0.40;;
40637;SDS011;26336;44.696;10.622;2022-09-21T16:04:04;2.78;;;0.75;;
40637;SDS011;26336;44.696;10.622;2022-09-21T16:13:38;1.67;;;0.50;;
40637;SDS011;26336;44.696;10.622;2022-09-21T16:20:16;1.08;;;0.70;;
40637;SDS011;26336;44.696;10.622;2022-09-21T16:23:22;1.40;;;0.50;;
40637;SDS011;26336;44.696;10.622;2022-09-21T16:26:33;2.85;;;0.55;;
40637;SDS011;26336;44.696;10.622;2022-09-21T16:29:40;3.63;;;0.43;;
40637;SDS011;26336;44.696;10.622;2022-09-21T16:32:49;4.25;;;0.50;;
40637;SDS011;26336;44.696;10.622;2022-09-21T16:35:54;2.38;;;0.70;;
40637;SDS011;26336;44.696;10.622;2022-09-21T16:38:59;1.63;;;0.60;;
40637;SDS011;26336;44.696;10.622;2022-09-21T16:42:08;2.25;;;0.60;;
40637;SDS011;26336;44.696;10.622;2022-09-21T16:45:15;1.08;;;0.52;;
40637;SDS011;26336;44.696;10.622;2022-09-21T16:48:33;1.08;;;0.55;;
40637;SDS011;26336;44.696;10.622;2022-09-21T16:51:37;2.38;;;0.55;;
40637;SDS011;26336;44.696;10.622;2022-09-21T16:54:41;1.98;;;0.80;;
40637;SDS011;26336;44.696;10.622;2022-09-21T16:57:45;0.93;;;0.60;;
40637;SDS011;26336;44.696;10.622;2022-09-21T17:00:51;4.15;;;0.88;;
40637;SDS011;26336;44.696;10.622;2022-09-21T17:03:56;2.00;;;0.47;;
40637;SDS011;26336;44.696;10.622;2022-09-21T17:07:00;2.53;;;0.47;;
40637;SDS011;26336;44.696;10.622;2022-09-21T17:10:11;3.13;;;0.68;;
40637;SDS011;26336;44.696;10.622;2022-09-21T17:13:18;2.97;;;1.00;;
40637;SDS011;26336;44.696;10.622;2022-09-21T17:16:23;3.92;;;0.77;;
40637;SDS011;26336;44.696;10.622;2022-09-21T17:19:27;1.55;;;0.68;;
40637;SDS011;26336;44.696;10.622;2022-09-21T17:22:31;1.65;;;0.63;;
40637;SDS011;26336;44.696;10.622;2022-09-21T17:25:36;2.70;;;0.55;;
40637;SDS011;26336;44.696;10.622;2022-09-21T17:28:40;1.23;;;0.60;;
40637;SDS011;26336;44.696;10.622;2022-09-21T17:31:45;0.90;;;0.50;;
40637;SDS011;26336;44.696;10.622;2022-09-21T17:34:56;5.15;;;0.80;;
40637;SDS011;26336;44.696;10.622;2022-09-21T17:38:04;3.35;;;0.80;;
40637;SDS011;26336;44.696;10.622;2022-09-21T17:41:55;1.40;;;0.95;;
40637;SDS011;26336;44.696;10.622;2022-09-21T17:47:57;1.95;;;0.82;;
40637;SDS011;26336;44.696;10.622;2022-09-21T17:51:02;3.72;;;1.10;;
40637;SDS011;26336;44.696;10.622;2022-09-21T17:54:06;2.97;;;0.85;;
40637;SDS011;26336;44.696;10.622;2022-09-21T17:57:14;0.75;;;0.60;;
40637;SDS011;26336;44.696;10.622;2022-09-21T18:00:56;2.25;;;0.60;;
40637;SDS011;26336;44.696;10.622;2022-09-21T18:04:03;4.38;;;0.70;;
40637;SDS011;26336;44.696;10.622;2022-09-21T18:07:08;3.80;;;0.80;;
40637;SDS011;26336;44.696;10.622;2022-09-21T18:10:14;5.68;;;0.82;;
40637;SDS011;26336;44.696;10.622;2022-09-21T18:26:40;1.92;;;0.77;;
40637;SDS011;26336;44.696;10.622;2022-09-21T18:29:45;1.70;;;0.80;;
40637;SDS011;26336;44.696;10.622;2022-09-21T18:32:58;2.72;;;0.80;;
40637;SDS011;26336;44.696;10.622;2022-09-21T18:36:32;1.67;;;0.80;;
40637;SDS011;26336;44.696;10.622;2022-09-21T18:42:58;2.55;;;0.75;;
40637;SDS011;26336;44.696;10.622;2022-09-21T18:46:22;2.72;;;0.90;;
40637;SDS011;26336;44.696;10.622;2022-09-21T18:56:19;2.30;;;0.85;;
40637;SDS011;26336;44.696;10.622;2022-09-21T18:59:24;2.80;;;1.00;;
40637;SDS011;26336;44.696;10.622;2022-09-21T19:02:28;1.48;;;0.80;;
40637;SDS011;26336;44.696;10.622;2022-09-21T19:05:32;1.65;;;0.80;;
40637;SDS011;26336;44.696;10.622;2022-09-21T19:22:48;2.38;;;1.10;;
40637;SDS011;26336;44.696;10.622;2022-09-21T19:26:17;2.45;;;1.27;;
40637;SDS011;26336;44.696;10.622;2022-09-21T19:32:35;2.38;;;0.80;;
40637;SDS011;26336;44.696;10.622;2022-09-21T19:35:46;4.07;;;0.97;;
40637;SDS011;26336;44.696;10.622;2022-09-21T19:38:50;2.08;;;0.70;;
40637;SDS011;26336;44.696;10.622;2022-09-21T19:42:07;4.68;;;1.42;;
40637;SDS011;26336;44.696;10.622;2022-09-21T19:45:37;2.97;;;1.15;;
40637;SDS011;26336;44.696;10.622;2022-09-21T19:48:57;2.30;;;0.90;;
40637;SDS011;26336;44.696;10.622;2022-09-21T19:52:07;2.15;;;0.82;;
40637;SDS011;26336;44.696;10.622;2022-09-21T19:55:18;3.13;;;1.27;;
40637;SDS011;26336;44.696;10.622;2022-09-21T19:58:42;4.53;;;1.30;;
40637;SDS011;26336;44.696;10.622;2022-09-21T20:02:04;2.58;;;1.30;;
40637;SDS011;26336;44.696;10.622;2022-09-21T20:08:33;3.08;;;1.27;;
40637;SDS011;26336;44.696;10.622;2022-09-21T20:11:45;5.00;;;1.55;;
40637;SDS011;26336;44.696;10.622;2022-09-21T20:15:01;2.67;;;1.30;;
40637;SDS011;26336;44.696;10.622;2022-09-21T20:21:47;5.53;;;1.30;;
40637;SDS011;26336;44.696;10.622;2022-09-21T20:24:59;3.50;;;1.52;;
40637;SDS011;26336;44.696;10.622;2022-09-21T20:28:10;4.53;;;1.50;;
40637;SDS011;26336;44.696;10.622;2022-09-21T20:31:15;5.15;;;1.52;;
40637;SDS011;26336;44.696;10.622;2022-09-21T20:34:19;2.88;;;1.63;;
40637;SDS011;26336;44.696;10.622;2022-09-21T20:37:23;2.63;;;1.40;;
40637;SDS011;26336;44.696;10.622;2022-09-21T20:40:29;2.75;;;1.33;;
40637;SDS011;26336;44.696;10.622;2022-09-21T20:43:33;3.30;;;1.20;;
40637;SDS011;26336;44.696;10.622;2022-09-21T20:46:37;3.88;;;1.33;;
40637;SDS011;26336;44.696;10.622;2022-09-21T20:49:41;4.80;;;1.60;;
40637;SDS011;26336;44.696;10.622;2022-09-21T20:52:45;3.13;;;1.50;;
40637;SDS011;26336;44.696;10.622;2022-09-21T20:55:56;2.88;;;1.50;;
40637;SDS011;26336;44.696;10.622;2022-09-21T20:59:03;3.25;;;1.50;;
40637;SDS011;26336;44.696;10.622;2022-09-21T21:02:08;2.85;;;1.50;;
40637;SDS011;26336;44.696;10.622;2022-09-21T21:05:14;2.50;;;1.52;;
40637;SDS011;26336;44.696;10.622;2022-09-21T21:08:20;2.97;;;1.60;;
40637;SDS011;26336;44.696;10.622;2022-09-21T21:11:24;6.07;;;1.52;;
40637;SDS011;26336;44.696;10.622;2022-09-21T21:14:30;3.15;;;2.00;;
40637;SDS011;26336;44.696;10.622;2022-09-21T21:17:34;2.90;;;1.35;;
40637;SDS011;26336;44.696;10.622;2022-09-21T21:20:37;3.95;;;1.27;;
40637;SDS011;26336;44.696;10.622;2022-09-21T21:23:47;3.22;;;1.23;;
40637;SDS011;26336;44.696;10.622;2022-09-21T21:27:12;3.63;;;1.35;;
40637;SDS011;26336;44.696;10.622;2022-09-21T21:30:18;3.63;;;1.60;;
40637;SDS011;26336;44.696;10.622;2022-09-21T21:33:22;2.97;;;1.40;;
40637;SDS011;26336;44.696;10.622;2022-09-21T21:36:27;2.78;;;1.40;;
40637;SDS011;26336;44.696;10.622;2022-09-21T21:39:30;5.53;;;1.58;;
40637;SDS011;26336;44.696;10.622;2022-09-21T21:42:36;2.33;;;1.33;;
40637;SDS011;26336;44.696;10.622;2022-09-21T21:45:39;3.83;;;1.42;;
40637;SDS011;26336;44.696;10.622;2022-09-21T21:48:44;2.47;;;1.17;;
40637;SDS011;26336;44.696;10.622;2022-09-21T21:51:48;4.43;;;1.35;;
40637;SDS011;26336;44.696;10.622;2022-09-21T21:54:53;2.65;;;1.20;;
40637;SDS011;26336;44.696;10.622;2022-09-21T21:57:57;2.38;;;1.25;;
40637;SDS011;26336;44.696;10.622;2022-09-21T22:01:14;2.90;;;1.30;;
40637;SDS011;26336;44.696;10.622;2022-09-21T22:04:21;2.88;;;1.40;;
40637;SDS011;26336;44.696;10.622;2022-09-21T22:07:25;3.85;;;1.20;;
40637;SDS011;26336;44.696;10.622;2022-09-21T22:10:29;2.47;;;1.02;;
40637;SDS011;26336;44.696;10.622;2022-09-21T22:13:34;2.72;;;1.27;;
40637;SDS011;26336;44.696;10.622;2022-09-21T22:16:39;1.70;;;1.20;;
40637;SDS011;26336;44.696;10.622;2022-09-21T22:19:43;3.75;;;1.40;;
40637;SDS011;26336;44.696;10.622;2022-09-21T22:22:48;5.30;;;2.08;;
40637;SDS011;26336;44.696;10.622;2022-09-21T22:25:52;3.70;;;2.00;;
40637;SDS011;26336;44.696;10.622;2022-09-21T22:29:23;3.47;;;1.50;;
40637;SDS011;26336;44.696;10.622;2022-09-21T22:32:27;3.28;;;1.40;;
40637;SDS011;26336;44.696;10.622;2022-09-21T22:35:30;5.22;;;1.67;;
40637;SDS011;26336;44.696;10.622;2022-09-21T22:38:35;4.43;;;1.88;;
40637;SDS011;26336;44.696;10.622;2022-09-21T22:41:40;3.08;;;1.85;;
40637;SDS011;26336;44.696;10.622;2022-09-21T22:44:45;5.57;;;2.00;;
40637;SDS011;26336;44.696;10.622;2022-09-21T22:47:49;4.10;;;1.80;;
40637;SDS011;26336;44.696;10.622;2022-09-21T22:50:53;3.20;;;1.40;;
40637;SDS011;26336;44.696;10.622;2022-09-21T22:53:58;3.72;;;1.67;;
40637;SDS011;26336;44.696;10.622;2022-09-21T22:57:03;5.85;;;1.67;;
40637;SDS011;26336;44.696;10.622;2022-09-21T23:00:08;3.47;;;1.70;;